Time;durP1;ratioP1;P1;durP2;ratioP2;P2;SDS_P1;SDS_P2;PMS_P1;PMS_P2;Temp;Humidity;BMP_temperature;BMP_pressure;BME280_temperature;BME280_humidity;BME280_pressure;Samples;Min_cycle;Max_cycle;Signal;HPM_P1;HPM_P2
2023/01/31 00:00:46;;;;;;;8.03;4.00;;;;;;;;;;5054503;28;20076;-57
2023/01/31 00:03:12;;;;;;;6.70;4.20;;;;;;;;;;5055100;28;20084;-57
2023/01/31 00:05:38;;;;;;;7.07;3.37;;;;;;;;;;5054712;28;20347;-56
2023/01/31 00:08:04;;;;;;;4.60;2.63;;;;;;;;;;5054370;28;20021;-58
2023/01/31 00:10:30;;;;;;;12.87;3.43;;;;;;;;;;5054216;28;20488;-56
2023/01/31 00:12:56;;;;;;;5.03;4.53;;;;;;;;;;5054288;28;20104;-57
2023/01/31 00:15:22;;;;;;;3.57;3.20;;;;;;;;;;5054818;28;20033;-57
2023/01/31 00:17:49;;;;;;;9.03;3.13;;;;;;;;;;5054203;28;20032;-57
2023/01/31 00:20:15;;;;;;;4.37;2.67;;;;;;;;;;5054083;28;20037;-57
2023/01/31 00:22:41;;;;;;;7.53;2.80;;;;;;;;;;5054403;28;20032;-56
2023/01/31 00:25:07;;;;;;;14.33;2.50;;;;;;;;;;5054430;28;20189;-57
2023/01/31 00:27:33;;;;;;;3.20;2.67;;;;;;;;;;5054511;28;20032;-55
2023/01/31 00:29:59;;;;;;;4.57;2.80;;;;;;;;;;5053708;28;20419;-57
2023/01/31 00:32:25;;;;;;;11.17;3.40;;;;;;;;;;5054502;28;20029;-56
2023/01/31 00:34:52;;;;;;;5.07;3.40;;;;;;;;;;5054440;28;20112;-56
2023/01/31 00:37:18;;;;;;;7.80;3.47;;;;;;;;;;5054509;28;20033;-57
2023/01/31 00:39:44;;;;;;;2.83;2.27;;;;;;;;;;5053827;28;20052;-57
2023/01/31 00:42:10;;;;;;;12.10;3.83;;;;;;;;;;5053859;28;20079;-57
2023/01/31 00:44:36;;;;;;;4.63;2.67;;;;;;;;;;5054065;28;20112;-57
2023/01/31 00:47:02;;;;;;;5.33;3.07;;;;;;;;;;5054509;28;20401;-58
2023/01/31 00:49:28;;;;;;;9.53;4.00;;;;;;;;;;5053470;28;20029;-57
2023/01/31 00:51:54;;;;;;;3.60;3.20;;;;;;;;;;5053719;28;20371;-56
2023/01/31 00:54:20;;;;;;;4.17;3.73;;;;;;;;;;5053833;28;20358;-58
2023/01/31 00:56:46;;;;;;;9.00;4.00;;;;;;;;;;5054016;28;20025;-55
2023/01/31 00:59:12;;;;;;;5.20;3.47;;;;;;;;;;5053610;28;20056;-57
2023/01/31 01:01:38;;;;;;;3.30;2.67;;;;;;;;;;5053437;28;20052;-56
2023/01/31 01:04:05;;;;;;;6.43;3.37;;;;;;;;;;5053510;28;20021;-57
2023/01/31 01:06:31;;;;;;;4.80;2.90;;;;;;;;;;5054376;28;20108;-57
2023/01/31 01:08:58;;;;;;;4.97;3.07;;;;;;;;;;5053526;28;20431;-56
2023/01/31 01:11:28;;;;;;;3.07;2.23;;;;;;;;;;5053401;28;20391;-57
2023/01/31 01:13:55;;;;;;;5.70;2.75;;;;;;;;;;5053438;28;20028;-57
2023/01/31 01:16:24;;;;;;;7.73;2.43;;;;;;;;;;5053746;28;20406;-55
2023/01/31 01:18:50;;;;;;;6.07;3.03;;;;;;;;;;5053383;28;20032;-57
2023/01/31 01:21:21;;;;;;;6.13;2.53;;;;;;;;;;5053439;28;20131;-58
2023/01/31 01:23:47;;;;;;;;;;;;;;;;;;5054651;28;20028;-56
2023/01/31 01:26:17;;;;;;;7.13;3.07;;;;;;;;;;5053575;28;20317;-57
2023/01/31 01:28:43;;;;;;;4.70;3.00;;;;;;;;;;5053376;28;20025;-57
2023/01/31 01:31:10;;;;;;;3.90;2.70;;;;;;;;;;5053355;28;20479;-57
2023/01/31 01:33:36;;;;;;;4.37;2.77;;;;;;;;;;5053596;28;20029;-57
2023/01/31 01:36:03;;;;;;;6.20;2.60;;;;;;;;;;5053270;28;20033;-57
2023/01/31 01:38:29;;;;;;;4.07;2.57;;;;;;;;;;5053508;28;20340;-58
2023/01/31 01:40:55;;;;;;;3.93;2.70;;;;;;;;;;5053964;28;20079;-56
2023/01/31 01:43:24;;;;;;;6.50;3.80;;;;;;;;;;5053151;28;20474;-57
2023/01/31 01:45:52;;;;;;;6.93;3.23;;;;;;;;;;5053203;28;20379;-57
2023/01/31 01:48:18;;;;;;;11.30;2.80;;;;;;;;;;5053098;28;20028;-58
2023/01/31 01:50:46;;;;;;;2.43;1.97;;;;;;;;;;5053859;28;20021;-57
2023/01/31 01:53:15;;;;;;;4.80;2.33;;;;;;;;;;5053102;28;20108;-59
2023/01/31 01:55:50;;;;;;;9.30;3.53;;;;;;;;;;5053146;28;20092;-55
2023/01/31 01:58:36;;;;;;;3.97;2.40;;;;;;;;;;5053071;28;20370;-57
2023/01/31 02:01:06;;;;;;;3.23;2.93;;;;;;;;;;5052660;28;20033;-56
2023/01/31 02:03:32;;;;;;;4.87;2.33;;;;;;;;;;5053132;28;20399;-54
2023/01/31 02:06:00;;;;;;;4.97;2.70;;;;;;;;;;5053561;28;20421;-57
2023/01/31 02:08:27;;;;;;;5.10;3.17;;;;;;;;;;5056196;28;20029;-55
2023/01/31 02:10:55;;;;;;;9.57;3.03;;;;;;;;;;5056452;28;20055;-56
2023/01/31 02:13:22;;;;;;;6.67;3.73;;;;;;;;;;5056770;28;20462;-57
2023/01/31 02:15:48;;;;;;;5.07;2.97;;;;;;;;;;5056485;28;20100;-57
2023/01/31 02:18:15;;;;;;;5.97;2.80;;;;;;;;;;5056424;28;20029;-57
2023/01/31 02:20:41;;;;;;;4.97;2.87;;;;;;;;;;5056301;28;20021;-56
2023/01/31 02:23:25;;;;;;;8.70;3.43;;;;;;;;;;5056863;28;20040;-57
2023/01/31 02:25:54;;;;;;;6.13;3.27;;;;;;;;;;5056341;28;20032;-58
2023/01/31 02:28:23;;;;;;;5.27;3.00;;;;;;;;;;5056466;28;20029;-57
2023/01/31 02:31:01;;;;;;;9.27;3.00;;;;;;;;;;5056219;28;20032;-57
2023/01/31 02:33:27;;;;;;;3.50;2.57;;;;;;;;;;5056141;28;20039;-57
2023/01/31 02:35:53;;;;;;;4.43;1.83;;;;;;;;;;5056339;28;20021;-57
2023/01/31 02:38:52;;;;;;;5.23;2.40;;;;;;;;;;5055962;28;20047;-55
2023/01/31 02:41:24;;;;;;;5.13;2.93;;;;;;;;;;5043946;28;20033;-55
2023/01/31 02:46:45;;;;;;;3.53;2.87;;;;;;;;;;5055941;28;20048;-57
2023/01/31 02:49:33;;;;;;;9.37;4.53;;;;;;;;;;5056154;28;20100;-57
2023/01/31 02:52:15;;;;;;;4.20;2.83;;;;;;;;;;5055768;28;20025;-58
2023/01/31 02:57:27;;;;;;;6.10;3.33;;;;;;;;;;5055753;28;20086;-57
2023/01/31 02:59:53;;;;;;;6.97;2.30;;;;;;;;;;5055905;28;20044;-57
2023/01/31 03:02:19;;;;;;;8.07;3.30;;;;;;;;;;5055358;28;20041;-56
2023/01/31 03:04:46;;;;;;;3.57;2.60;;;;;;;;;;5055931;28;20025;-57
2023/01/31 03:07:15;;;;;;;3.40;2.03;;;;;;;;;;5055472;28;20105;-57
2023/01/31 03:09:47;;;;;;;8.40;4.40;;;;;;;;;;5055321;28;20040;-58
2023/01/31 03:12:19;;;;;;;10.90;3.17;;;;;;;;;;5055331;28;20025;-57
2023/01/31 03:15:04;;;;;;;3.33;3.03;;;;;;;;;;5055359;28;20054;-57
2023/01/31 03:17:45;;;;;;;13.63;3.13;;;;;;;;;;5054776;28;20056;-56
2023/01/31 03:20:11;;;;;;;2.93;1.87;;;;;;;;;;5055134;28;20043;-57
2023/01/31 03:22:58;;;;;;;5.00;3.60;;;;;;;;;;5055218;28;20423;-56
2023/01/31 03:25:26;;;;;;;4.63;2.43;;;;;;;;;;5055524;28;20029;-56
2023/01/31 03:27:55;;;;;;;4.13;2.43;;;;;;;;;;5054839;28;20032;-57
2023/01/31 03:30:27;;;;;;;4.23;2.93;;;;;;;;;;5055353;28;20028;-56
2023/01/31 03:32:56;;;;;;;4.37;1.87;;;;;;;;;;5055830;28;20107;-58
2023/01/31 03:35:25;;;;;;;4.90;2.93;;;;;;;;;;5055002;28;20428;-56
2023/01/31 03:37:55;;;;;;;3.90;2.73;;;;;;;;;;5054539;28;20482;-56
2023/01/31 03:40:32;;;;;;;9.48;2.50;;;;;;;;;;5055373;28;20033;-57
2023/01/31 03:43:04;;;;;;;3.90;3.07;;;;;;;;;;5055307;28;20025;-57
2023/01/31 03:45:39;;;;;;;6.00;3.40;;;;;;;;;;5055112;28;20029;-57
2023/01/31 03:48:12;;;;;;;6.73;2.43;;;;;;;;;;5055296;28;20103;-58
2023/01/31 03:50:40;;;;;;;4.10;3.37;;;;;;;;;;5055245;28;20025;-58
2023/01/31 03:53:18;;;;;;;3.70;2.70;;;;;;;;;;5054614;28;20074;-57
2023/01/31 03:55:59;;;;;;;4.23;2.93;;;;;;;;;;5054984;28;20032;-57
2023/01/31 03:58:27;;;;;;;2.97;2.03;;;;;;;;;;5054767;28;20390;-58
2023/01/31 04:00:54;;;;;;;7.47;2.83;;;;;;;;;;5054945;28;20052;-57
2023/01/31 04:03:24;;;;;;;6.53;2.93;;;;;;;;;;5054575;28;20049;-58
2023/01/31 04:05:50;;;;;;;5.93;3.20;;;;;;;;;;5054961;28;20319;-56
2023/01/31 04:08:16;;;;;;;4.37;2.83;;;;;;;;;;5054319;28;20100;-57
2023/01/31 04:10:42;;;;;;;11.40;3.30;;;;;;;;;;5054243;28;20029;-57
2023/01/31 04:13:08;;;;;;;5.00;3.10;;;;;;;;;;5054570;28;20068;-57
2023/01/31 04:15:34;;;;;;;3.00;2.13;;;;;;;;;;5054214;28;20036;-57
2023/01/31 04:18:00;;;;;;;9.57;3.20;;;;;;;;;;5054435;28;20033;-57
2023/01/31 04:20:26;;;;;;;4.27;2.83;;;;;;;;;;5054435;28;20111;-57
2023/01/31 04:22:52;;;;;;;6.87;2.70;;;;;;;;;;5054154;28;20025;-57
2023/01/31 04:25:18;;;;;;;4.60;2.83;;;;;;;;;;5054114;28;20040;-57
2023/01/31 04:27:44;;;;;;;8.07;2.77;;;;;;;;;;5053716;28;20071;-57
2023/01/31 04:30:10;;;;;;;2.93;2.50;;;;;;;;;;5053866;28;20358;-56
2023/01/31 04:32:36;;;;;;;5.67;2.70;;;;;;;;;;5054003;28;20059;-56
2023/01/31 04:35:02;;;;;;;3.80;3.20;;;;;;;;;;5054027;28;20057;-55
2023/01/31 04:37:28;;;;;;;8.50;3.67;;;;;;;;;;5054396;28;20025;-56
2023/01/31 04:39:54;;;;;;;4.13;3.73;;;;;;;;;;5054164;28;20032;-57
2023/01/31 04:42:21;;;;;;;4.53;3.33;;;;;;;;;;5053908;28;20032;-56
2023/01/31 04:44:48;;;;;;;3.60;2.37;;;;;;;;;;5053946;28;20025;-58
2023/01/31 04:47:14;;;;;;;3.47;2.33;;;;;;;;;;5053488;28;20459;-57
2023/01/31 04:49:40;;;;;;;6.27;3.27;;;;;;;;;;5053764;28;20053;-58
2023/01/31 04:52:06;;;;;;;5.60;3.17;;;;;;;;;;5036639;28;20033;-58
2023/01/31 04:54:32;;;;;;;5.23;2.80;;;;;;;;;;5054385;28;20029;-57
2023/01/31 04:56:58;;;;;;;4.87;3.03;;;;;;;;;;5053591;28;20025;-57
2023/01/31 04:59:24;;;;;;;6.30;2.90;;;;;;;;;;5053761;28;20398;-57
2023/01/31 05:01:50;;;;;;;4.93;2.53;;;;;;;;;;5053658;28;20235;-57
2023/01/31 05:04:16;;;;;;;3.53;2.90;;;;;;;;;;5053687;28;20494;-57
2023/01/31 05:06:42;;;;;;;4.73;2.53;;;;;;;;;;5053989;28;20025;-57
2023/01/31 05:09:08;;;;;;;5.77;2.53;;;;;;;;;;5053334;28;20033;-56
2023/01/31 05:11:33;;;;;;;6.37;3.47;;;;;;;;;;5054310;28;20342;-56
2023/01/31 05:14:00;;;;;;;4.17;3.10;;;;;;;;;;5053837;28;20104;-57
2023/01/31 05:16:26;;;;;;;5.00;2.97;;;;;;;;;;5053816;28;20034;-57
2023/01/31 05:18:52;;;;;;;8.47;3.80;;;;;;;;;;5053809;28;20032;-56
2023/01/31 05:21:18;;;;;;;11.03;3.27;;;;;;;;;;5053451;28;20025;-57
2023/01/31 05:23:44;;;;;;;5.30;4.80;;;;;;;;;;5053797;28;20108;-57
2023/01/31 05:26:10;;;;;;;2.97;2.47;;;;;;;;;;5053522;28;20033;-57
2023/01/31 05:28:36;;;;;;;3.73;2.90;;;;;;;;;;5053245;28;20391;-57
2023/01/31 05:31:03;;;;;;;3.63;2.67;;;;;;;;;;5053425;28;20033;-57
2023/01/31 05:33:30;;;;;;;2.50;1.67;;;;;;;;;;5053946;28;20363;-57
2023/01/31 05:35:56;;;;;;;3.60;2.87;;;;;;;;;;5054132;28;20032;-57
2023/01/31 05:38:22;;;;;;;4.77;4.27;;;;;;;;;;5053767;28;20060;-57
2023/01/31 05:40:49;;;;;;;13.30;3.70;;;;;;;;;;5053490;28;20040;-57
2023/01/31 05:43:15;;;;;;;8.97;2.20;;;;;;;;;;5056113;28;20025;-57
2023/01/31 05:45:44;;;;;;;13.13;3.70;;;;;;;;;;5057702;28;20040;-55
2023/01/31 05:48:10;;;;;;;4.57;3.43;;;;;;;;;;5057071;28;20108;-55
2023/01/31 05:50:36;;;;;;;3.53;2.73;;;;;;;;;;5057289;28;20102;-57
2023/01/31 05:53:02;;;;;;;4.60;3.07;;;;;;;;;;5057003;28;20029;-57
2023/01/31 05:55:29;;;;;;;8.33;3.70;;;;;;;;;;5057789;28;20075;-57
2023/01/31 05:57:55;;;;;;;4.67;2.97;;;;;;;;;;5057372;28;20068;-56
2023/01/31 06:00:21;;;;;;;4.87;2.87;;;;;;;;;;5057441;28;20036;-56
2023/01/31 06:02:47;;;;;;;4.30;3.13;;;;;;;;;;5057121;28;20045;-56
2023/01/31 06:05:13;;;;;;;4.17;3.17;;;;;;;;;;5057413;28;20091;-57
2023/01/31 06:07:39;;;;;;;5.13;3.03;;;;;;;;;;5056611;28;20025;-57
2023/01/31 06:10:06;;;;;;;3.77;3.47;;;;;;;;;;5056961;28;20119;-55
2023/01/31 06:12:32;;;;;;;6.23;3.60;;;;;;;;;;5056679;28;20033;-58
2023/01/31 06:14:58;;;;;;;7.23;3.43;;;;;;;;;;5056495;28;20417;-57
2023/01/31 06:17:24;;;;;;;4.50;3.47;;;;;;;;;;5056211;28;20040;-57
2023/01/31 06:19:50;;;;;;;11.83;2.77;;;;;;;;;;5056109;28;20032;-57
2023/01/31 06:22:16;;;;;;;3.50;2.83;;;;;;;;;;5056664;28;20106;-54
2023/01/31 06:24:42;;;;;;;7.03;4.13;;;;;;;;;;5056759;28;20029;-55
2023/01/31 06:27:08;;;;;;;8.00;3.10;;;;;;;;;;5056400;28;20025;-56
2023/01/31 06:29:34;;;;;;;4.27;3.20;;;;;;;;;;5056278;28;20025;-55
2023/01/31 06:32:00;;;;;;;10.73;4.43;;;;;;;;;;5056403;28;20035;-56
2023/01/31 06:34:26;;;;;;;7.20;4.07;;;;;;;;;;5056576;28;20100;-56
2023/01/31 06:36:52;;;;;;;3.90;2.73;;;;;;;;;;5056054;28;20083;-55
2023/01/31 06:39:18;;;;;;;5.50;3.53;;;;;;;;;;5056426;28;20033;-57
2023/01/31 06:41:44;;;;;;;10.20;4.00;;;;;;;;;;5056005;28;20025;-57
2023/01/31 06:44:10;;;;;;;6.50;3.97;;;;;;;;;;5055910;28;20033;-56
2023/01/31 06:46:37;;;;;;;5.73;3.20;;;;;;;;;;5055879;28;20029;-56
2023/01/31 06:49:03;;;;;;;5.83;4.13;;;;;;;;;;5055899;28;20102;-56
2023/01/31 06:51:29;;;;;;;5.13;3.97;;;;;;;;;;5056470;28;20048;-56
2023/01/31 06:53:55;;;;;;;2.83;2.50;;;;;;;;;;5055596;28;20025;-55
2023/01/31 06:56:21;;;;;;;3.93;3.00;;;;;;;;;;5056325;28;20025;-56
2023/01/31 06:58:47;;;;;;;9.87;3.20;;;;;;;;;;5056043;28;20033;-56
2023/01/31 07:01:14;;;;;;;3.10;2.80;;;;;;;;;;5055887;28;20374;-57
2023/01/31 07:03:41;;;;;;;5.80;2.83;;;;;;;;;;5055669;28;20447;-56
2023/01/31 07:06:07;;;;;;;9.70;4.00;;;;;;;;;;5055865;28;20035;-55
2023/01/31 07:08:33;;;;;;;5.80;2.73;;;;;;;;;;5055381;28;20025;-54
2023/01/31 07:11:02;;;;;;;3.33;2.73;;;;;;;;;;5055354;28;20512;-57
2023/01/31 07:13:29;;;;;;;8.57;4.30;;;;;;;;;;5055453;28;20052;-56
2023/01/31 07:15:55;;;;;;;3.87;3.03;;;;;;;;;;5055993;28;20128;-56
2023/01/31 07:18:21;;;;;;;3.90;2.90;;;;;;;;;;5055653;28;20036;-55
2023/01/31 07:20:47;;;;;;;7.67;4.30;;;;;;;;;;5055345;28;20032;-57
2023/01/31 07:23:13;;;;;;;3.83;2.67;;;;;;;;;;5055771;28;20032;-57
2023/01/31 07:25:39;;;;;;;9.43;3.87;;;;;;;;;;5055687;28;20075;-56
2023/01/31 07:28:05;;;;;;;4.00;3.20;;;;;;;;;;5055222;28;20421;-57
2023/01/31 07:30:31;;;;;;;2.63;2.27;;;;;;;;;;5055123;28;20471;-54
2023/01/31 07:32:57;;;;;;;4.90;4.07;;;;;;;;;;5055215;28;20426;-57
2023/01/31 07:35:23;;;;;;;5.83;4.37;;;;;;;;;;5055025;28;20025;-54
2023/01/31 07:37:51;;;;;;;4.50;3.90;;;;;;;;;;5054995;28;20040;-56
2023/01/31 07:40:17;;;;;;;7.43;5.13;;;;;;;;;;5055460;28;20033;-57
2023/01/31 07:42:43;;;;;;;5.20;3.27;;;;;;;;;;5054600;28;20044;-57
2023/01/31 07:45:13;;;;;;;8.10;4.10;;;;;;;;;;5055495;28;20029;-55
2023/01/31 07:47:39;;;;;;;7.65;4.13;;;;;;;;;;5054825;28;20033;-57
2023/01/31 07:50:06;;;;;;;3.73;2.57;;;;;;;;;;5054725;28;20061;-54
2023/01/31 07:52:32;;;;;;;7.53;3.67;;;;;;;;;;5054668;28;20029;-55
2023/01/31 07:54:58;;;;;;;5.07;4.57;;;;;;;;;;5054635;28;20112;-56
2023/01/31 07:57:24;;;;;;;6.33;3.63;;;;;;;;;;5054619;28;20116;-56
2023/01/31 07:59:50;;;;;;;6.07;4.27;;;;;;;;;;5054566;28;20037;-55
2023/01/31 08:05:01;;;;;;;8.30;4.60;;;;;;;;;;5054188;28;20067;-56
2023/01/31 08:07:28;;;;;;;4.90;3.63;;;;;;;;;;5054492;28;20029;-55
2023/01/31 08:09:54;;;;;;;10.60;5.13;;;;;;;;;;5054844;28;20459;-55
2023/01/31 08:12:20;;;;;;;4.87;3.43;;;;;;;;;;5054116;28;20029;-57
2023/01/31 08:14:46;;;;;;;11.30;5.03;;;;;;;;;;5054975;28;20044;-56
2023/01/31 08:17:12;;;;;;;12.37;4.63;;;;;;;;;;5054272;28;20040;-55
2023/01/31 08:19:38;;;;;;;8.13;4.97;;;;;;;;;;5054580;28;20427;-57
2023/01/31 08:22:04;;;;;;;5.97;4.70;;;;;;;;;;5054303;28;20057;-56
2023/01/31 08:24:31;;;;;;;5.73;3.63;;;;;;;;;;5054471;28;20029;-54
2023/01/31 08:26:57;;;;;;;8.10;4.63;;;;;;;;;;5054059;28;20033;-56
2023/01/31 08:29:23;;;;;;;6.37;4.73;;;;;;;;;;5053928;28;20028;-56
2023/01/31 08:31:50;;;;;;;7.90;5.33;;;;;;;;;;5054503;28;20040;-57
2023/01/31 08:34:16;;;;;;;5.10;4.37;;;;;;;;;;5053954;28;20025;-57
2023/01/31 08:36:42;;;;;;;4.53;4.10;;;;;;;;;;5053945;28;20060;-56
2023/01/31 08:39:08;;;;;;;5.20;4.70;;;;;;;;;;5054237;28;20056;-57
2023/01/31 08:41:35;;;;;;;9.43;5.60;;;;;;;;;;5054374;28;20351;-57
2023/01/31 08:44:02;;;;;;;8.43;4.30;;;;;;;;;;5054166;28;20031;-56
2023/01/31 08:46:30;;;;;;;10.87;5.87;;;;;;;;;;5053410;28;20413;-56
2023/01/31 08:48:56;;;;;;;12.60;4.63;;;;;;;;;;5053808;28;20029;-56
2023/01/31 08:51:22;;;;;;;6.07;4.17;;;;;;;;;;5053596;28;20025;-57
2023/01/31 08:53:48;;;;;;;9.17;4.57;;;;;;;;;;5053703;28;20104;-55
2023/01/31 08:56:15;;;;;;;5.57;4.63;;;;;;;;;;5054079;28;20025;-56
2023/01/31 08:58:41;;;;;;;8.60;4.00;;;;;;;;;;5053852;28;20091;-56
2023/01/31 09:01:12;;;;;;;6.13;4.03;;;;;;;;;;5053167;28;20115;-57
2023/01/31 09:03:38;;;;;;;10.20;6.15;;;;;;;;;;5053655;28;20459;-57
2023/01/31 09:06:05;;;;;;;6.60;3.33;;;;;;;;;;5053979;28;20028;-58
2023/01/31 09:08:32;;;;;;;8.27;3.97;;;;;;;;;;5053812;28;20029;-57
2023/01/31 09:11:01;;;;;;;13.37;5.30;;;;;;;;;;5053275;28;20474;-58
2023/01/31 09:13:27;;;;;;;9.43;4.60;;;;;;;;;;5053480;28;20079;-57
2023/01/31 09:16:00;;;;;;;15.50;3.80;;;;;;;;;;5054882;28;20021;-58
2023/01/31 09:18:26;;;;;;;8.90;3.13;;;;;;;;;;5057479;28;20033;-57
2023/01/31 09:20:52;;;;;;;6.60;3.70;;;;;;;;;;5057477;28;20028;-55
2023/01/31 09:23:19;;;;;;;13.90;3.67;;;;;;;;;;5057494;28;20106;-57
2023/01/31 09:25:50;;;;;;;4.60;3.30;;;;;;;;;;5057765;28;20043;-55
2023/01/31 09:28:16;;;;;;;8.33;3.23;;;;;;;;;;5057527;28;20082;-56
2023/01/31 09:30:42;;;;;;;5.10;2.97;;;;;;;;;;5057507;28;20452;-55
2023/01/31 09:33:08;;;;;;;6.47;3.67;;;;;;;;;;5056617;28;20347;-55
2023/01/31 09:35:34;;;;;;;4.25;2.47;;;;;;;;;;5057821;28;20112;-54
2023/01/31 09:38:00;;;;;;;11.25;4.22;;;;;;;;;;5057233;28;20438;-55
2023/01/31 09:40:30;;;;;;;15.93;3.67;;;;;;;;;;5057579;28;20049;-57
2023/01/31 09:43:00;;;;;;;3.95;2.63;;;;;;;;;;5057113;28;20359;-51
2023/01/31 09:45:29;;;;;;;4.53;2.80;;;;;;;;;;5057998;28;20106;-54
2023/01/31 09:47:56;;;;;;;5.55;3.08;;;;;;;;;;5057416;28;20359;-54
2023/01/31 09:50:27;;;;;;;4.03;3.13;;;;;;;;;;5057026;28;20055;-55
2023/01/31 09:52:52;;;;;;;5.60;2.50;;;;;;;;;;5056787;28;20471;-56
2023/01/31 09:55:22;;;;;;;10.25;3.13;;;;;;;;;;5057355;28;20029;-55
2023/01/31 09:57:56;;;;;;;3.65;1.67;;;;;;;;;;5057126;28;20128;-52
2023/01/31 10:00:34;;;;;;;7.80;3.63;;;;;;;;;;5057105;28;20106;-54
2023/01/31 10:03:16;;;;;;;5.85;2.90;;;;;;;;;;5057022;28;20049;-54
2023/01/31 10:05:49;;;;;;;6.40;3.38;;;;;;;;;;5057283;28;20025;-56
2023/01/31 10:08:18;;;;;;;5.45;2.65;;;;;;;;;;5057037;28;20035;-53
2023/01/31 10:10:51;;;;;;;10.88;3.33;;;;;;;;;;5056436;28;20040;-56
2023/01/31 10:13:21;;;;;;;4.60;2.90;;;;;;;;;;5056375;28;20462;-56
2023/01/31 10:15:58;;;;;;;3.17;2.15;;;;;;;;;;5057067;28;20079;-57
2023/01/31 10:18:24;;;;;;;5.55;2.38;;;;;;;;;;5056094;28;20040;-55
2023/01/31 10:20:53;;;;;;;4.47;2.70;;;;;;;;;;5056862;28;20025;-55
2023/01/31 10:23:31;;;;;;;4.30;2.85;;;;;;;;;;5056836;28;20109;-54
2023/01/31 10:26:01;;;;;;;4.90;2.22;;;;;;;;;;5056738;28;20029;-57
2023/01/31 10:28:42;;;;;;;4.40;2.55;;;;;;;;;;5056067;28;20450;-55
2023/01/31 10:31:26;;;;;;;3.38;1.98;;;;;;;;;;5056058;28;20501;-55
2023/01/31 10:34:06;;;;;;;4.78;2.15;;;;;;;;;;5056708;28;20116;-53
2023/01/31 10:36:44;;;;;;;7.20;3.13;;;;;;;;;;5055713;28;20482;-57
2023/01/31 10:39:17;;;;;;;3.08;1.88;;;;;;;;;;5055990;28;20033;-55
2023/01/31 10:41:45;;;;;;;8.18;3.08;;;;;;;;;;5056236;28;20047;-57
2023/01/31 10:44:32;;;;;;;9.20;2.50;;;;;;;;;;5056130;28;20025;-54
2023/01/31 10:46:58;;;;;;;5.53;2.20;;;;;;;;;;5055968;28;20116;-57
2023/01/31 10:49:25;;;;;;;4.13;1.95;;;;;;;;;;5055924;28;20087;-57
2023/01/31 10:51:57;;;;;;;2.05;1.52;;;;;;;;;;5055895;28;20379;-56
2023/01/31 10:54:30;;;;;;;5.53;2.35;;;;;;;;;;5056242;28;20040;-56
2023/01/31 10:56:57;;;;;;;7.90;2.35;;;;;;;;;;5056271;28;20048;-56
2023/01/31 10:59:29;;;;;;;5.57;2.40;;;;;;;;;;5056003;28;20028;-57
2023/01/31 11:01:55;;;;;;;4.28;2.53;;;;;;;;;;5055591;28;20049;-57
2023/01/31 11:04:24;;;;;;;5.05;2.45;;;;;;;;;;5055680;28;20025;-55
2023/01/31 11:06:50;;;;;;;4.70;2.55;;;;;;;;;;5056001;28;20029;-56
2023/01/31 11:09:16;;;;;;;3.15;1.58;;;;;;;;;;5055390;28;20021;-56
2023/01/31 11:12:01;;;;;;;3.00;1.85;;;;;;;;;;5055211;28;20116;-56
2023/01/31 11:14:30;;;;;;;5.00;2.35;;;;;;;;;;5055122;28;20062;-54
2023/01/31 11:16:59;;;;;;;3.00;2.08;;;;;;;;;;5055110;28;20084;-53
2023/01/31 11:19:29;;;;;;;3.88;1.85;;;;;;;;;;5055216;28;20033;-55
2023/01/31 11:21:55;;;;;;;4.80;1.93;;;;;;;;;;5055173;28;20032;-56
2023/01/31 11:24:26;;;;;;;6.15;2.22;;;;;;;;;;5055621;28;20457;-56
2023/01/31 11:26:57;;;;;;;6.00;2.45;;;;;;;;;;5055462;28;20033;-54
2023/01/31 11:29:32;;;;;;;3.75;1.60;;;;;;;;;;5055368;28;20065;-56
2023/01/31 11:31:59;;;;;;;3.05;1.48;;;;;;;;;;5054936;28;20040;-53
2023/01/31 11:34:28;;;;;;;8.50;1.92;;;;;;;;;;5054723;28;20053;-55
2023/01/31 11:37:03;;;;;;;1.85;1.40;;;;;;;;;;5055102;28;20033;-55
2023/01/31 11:39:30;;;;;;;3.47;1.48;;;;;;;;;;5054284;28;20029;-52
2023/01/31 11:41:57;;;;;;;2.97;1.50;;;;;;;;;;5054836;28;20039;-57
2023/01/31 11:44:24;;;;;;;4.40;1.73;;;;;;;;;;5054852;28;20029;-56
2023/01/31 11:46:50;;;;;;;4.57;2.75;;;;;;;;;;5054710;28;20414;-53
2023/01/31 11:49:26;;;;;;;6.40;2.42;;;;;;;;;;5054688;28;20051;-57
2023/01/31 11:51:53;;;;;;;3.33;1.90;;;;;;;;;;5054482;28;20454;-55
2023/01/31 11:54:20;;;;;;;8.32;2.50;;;;;;;;;;5054103;28;20028;-56
2023/01/31 11:56:47;;;;;;;4.38;1.80;;;;;;;;;;5054199;28;20040;-57
2023/01/31 11:59:16;;;;;;;2.63;1.45;;;;;;;;;;5054164;28;20117;-54
2023/01/31 12:01:47;;;;;;;2.25;1.05;;;;;;;;;;5054241;28;20041;-56
2023/01/31 12:04:15;;;;;;;5.45;1.70;;;;;;;;;;5054067;28;20021;-55
2023/01/31 12:06:41;;;;;;;2.60;1.40;;;;;;;;;;5054380;28;20080;-56
2023/01/31 12:09:21;;;;;;;2.97;1.40;;;;;;;;;;5054296;28;20021;-56
2023/01/31 12:12:10;;;;;;;3.60;2.08;;;;;;;;;;5054017;28;20044;-56
2023/01/31 12:14:38;;;;;;;5.95;1.85;;;;;;;;;;5054445;28;20197;-57
2023/01/31 12:17:04;;;;;;;4.20;1.02;;;;;;;;;;5053958;28;20040;-57
2023/01/31 12:19:41;;;;;;;3.58;1.98;;;;;;;;;;5054082;28;20411;-57
2023/01/31 12:22:12;;;;;;;2.97;1.45;;;;;;;;;;5054303;28;20131;-53
2023/01/31 12:25:07;;;;;;;5.28;2.20;;;;;;;;;;5054379;28;20457;-57
2023/01/31 12:27:48;;;;;;;2.55;1.52;;;;;;;;;;5049657;28;20041;-55
2023/01/31 12:30:17;;;;;;;6.20;1.30;;;;;;;;;;5054094;28;20382;-53
2023/01/31 12:32:43;;;;;;;1.63;1.02;;;;;;;;;;5054302;28;20036;-53
2023/01/31 12:35:15;;;;;;;5.35;1.25;;;;;;;;;;5053965;28;20025;-54
2023/01/31 12:37:44;;;;;;;3.28;1.35;;;;;;;;;;5054305;28;20082;-57
2023/01/31 12:40:26;;;;;;;3.30;1.33;;;;;;;;;;5053832;28;20041;-54
2023/01/31 12:42:51;;;;;;;5.15;1.55;;;;;;;;;;5054350;28;20025;-54
2023/01/31 12:45:17;;;;;;;2.03;0.75;;;;;;;;;;5054096;28;20074;-53
2023/01/31 12:47:43;;;;;;;7.15;1.38;;;;;;;;;;5053805;28;20340;-56
2023/01/31 12:50:20;;;;;;;3.10;1.70;;;;;;;;;;5053516;28;20075;-55
2023/01/31 12:53:04;;;;;;;3.92;2.67;;;;;;;;;;5054029;28;20048;-57
2023/01/31 12:55:41;;;;;;;3.90;1.73;;;;;;;;;;5053802;28;20056;-53
2023/01/31 12:58:10;;;;;;;2.70;1.23;;;;;;;;;;5054104;28;20082;-54
2023/01/31 13:00:48;;;;;;;2.28;1.40;;;;;;;;;;5053612;28;20386;-57
2023/01/31 13:03:29;;;;;;;2.13;1.02;;;;;;;;;;5054033;28;20079;-55
2023/01/31 13:05:57;;;;;;;6.80;1.77;;;;;;;;;;5053681;28;20375;-54
2023/01/31 13:08:25;;;;;;;2.25;1.50;;;;;;;;;;5053307;28;20451;-56
2023/01/31 13:11:10;;;;;;;2.83;1.77;;;;;;;;;;5053544;28;20025;-57
2023/01/31 13:13:39;;;;;;;3.38;1.70;;;;;;;;;;5053866;28;20091;-54
2023/01/31 13:16:11;;;;;;;2.30;1.10;;;;;;;;;;5053871;28;20022;-51
2023/01/31 13:18:37;;;;;;;10.20;1.65;;;;;;;;;;5053603;28;20037;-54
2023/01/31 13:21:05;;;;;;;3.33;1.55;;;;;;;;;;5053848;28;20021;-56
2023/01/31 13:23:37;;;;;;;1.15;0.60;;;;;;;;;;5053574;28;20113;-53
2023/01/31 13:26:07;;;;;;;2.80;1.17;;;;;;;;;;5054640;28;20029;-57
2023/01/31 13:28:36;;;;;;;2.58;0.95;;;;;;;;;;5054014;28;20103;-57
2023/01/31 13:31:08;;;;;;;5.47;0.88;;;;;;;;;;5053677;28;20029;-56
2023/01/31 13:33:34;;;;;;;7.50;2.13;;;;;;;;;;5053768;28;20032;-56
2023/01/31 13:36:10;;;;;;;8.02;2.50;;;;;;;;;;5053939;28;20064;-55
2023/01/31 13:38:39;;;;;;;12.65;2.80;;;;;;;;;;5053817;28;20040;-56
2023/01/31 13:41:05;;;;;;;2.67;1.70;;;;;;;;;;5053584;28;20025;-57
2023/01/31 13:43:31;;;;;;;2.17;1.17;;;;;;;;;;5053286;28;20025;-56
2023/01/31 13:46:00;;;;;;;3.80;1.60;;;;;;;;;;5053298;28;20025;-56
2023/01/31 13:48:52;;;;;;;3.65;1.55;;;;;;;;;;5052971;28;20466;-53
2023/01/31 13:51:21;;;;;;;5.45;1.52;;;;;;;;;;5052343;28;20159;-57
2023/01/31 13:53:54;;;;;;;2.05;1.35;;;;;;;;;;5053092;28;20075;-52
2023/01/31 13:56:26;;;;;;;1.60;1.17;;;;;;;;;;5053411;28;20102;-54
2023/01/31 13:58:54;;;;;;;3.30;1.00;;;;;;;;;;5053385;28;20029;-55
2023/01/31 14:01:22;;;;;;;4.32;1.25;;;;;;;;;;5052570;28;20474;-55
2023/01/31 14:04:06;;;;;;;3.70;2.13;;;;;;;;;;5056053;28;20087;-57
2023/01/31 14:06:47;;;;;;;5.90;1.58;;;;;;;;;;5057094;28;20040;-55
2023/01/31 14:09:13;;;;;;;;;;;;;;;;;;5057446;28;20036;-55
2023/01/31 14:11:45;;;;;;;5.25;2.67;;;;;;;;;;5057134;28;20285;-57
2023/01/31 14:14:10;;;;;;;3.85;2.65;;;;;;;;;;5056704;28;20017;-56
2023/01/31 14:16:37;;;;;;;4.18;2.28;;;;;;;;;;5056526;28;20031;-56
2023/01/31 14:19:04;;;;;;;5.40;2.03;;;;;;;;;;5056528;28;20055;-56
2023/01/31 14:21:30;;;;;;;7.95;2.38;;;;;;;;;;5056653;28;20036;-57
2023/01/31 14:23:56;;;;;;;2.72;1.65;;;;;;;;;;5056248;28;20029;-57
2023/01/31 14:26:37;;;;;;;4.30;2.17;;;;;;;;;;5056589;28;20025;-55
2023/01/31 14:29:23;;;;;;;4.43;1.90;;;;;;;;;;5056198;28;20017;-56
2023/01/31 14:31:50;;;;;;;4.47;1.85;;;;;;;;;;5056253;28;20021;-54
2023/01/31 14:34:22;;;;;;;2.75;1.50;;;;;;;;;;5056721;28;20039;-57
2023/01/31 14:37:03;;;;;;;3.08;1.88;;;;;;;;;;5055881;28;20025;-57
2023/01/31 14:39:36;;;;;;;2.30;1.50;;;;;;;;;;5056262;28;20044;-56
2023/01/31 14:42:05;;;;;;;3.45;1.80;;;;;;;;;;5056017;28;20378;-56
2023/01/31 14:44:45;;;;;;;5.57;2.35;;;;;;;;;;5056311;28;20463;-55
2023/01/31 14:47:18;;;;;;;2.58;1.80;;;;;;;;;;5055890;28;20020;-54
2023/01/31 14:49:51;;;;;;;6.00;2.45;;;;;;;;;;5056122;28;20434;-54
2023/01/31 14:52:35;;;;;;;2.03;1.25;;;;;;;;;;5055708;28;20099;-57
2023/01/31 14:55:01;;;;;;;3.28;1.38;;;;;;;;;;5056386;28;20375;-58
2023/01/31 14:57:29;;;;;;;3.50;1.67;;;;;;;;;;5056187;28;20032;-57
2023/01/31 15:00:01;;;;;;;2.90;1.40;;;;;;;;;;5055374;28;20489;-56
2023/01/31 15:02:30;;;;;;;3.55;1.73;;;;;;;;;;5055896;28;20056;-56